Coppermine, Canada
Current Conditions -  °F | °C
As of 1:00 AM on Friday 24 Oct 2014 (Local Time) from CYCO Reporting Station
Light Snow Light Snow  
Wind Chill: -19°   Ceiling: 4000
Heat Index: -9°   Visibility: 3mi
Dew Point: -11°   Wind: 21mph
Humidity: 86%   Direction: 110°ESE
Pressure: 29.8"   Gusts: 26mph
Location:  67.83°N, 115.08°W
Report Text: CYCO 240700Z 11018G23KT 3SM -SN BLSN OVC040 M09/M11 A2980 RMKSC8 SLP093
Loading
Personal Weather Stations






























Interactive Weather Map
Tropical Storm Tracking
New forecast layout! Learn more

10-Day Weather Forecast

Advertisements
Track Severe Weather on mobile